Time;durP1;ratioP1;P1;durP2;ratioP2;P2;SDS_P1;SDS_P2;PMS_P1;PMS_P2;Temp;Humidity;BMP_temperature;BMP_pressure;BME280_temperature;BME280_humidity;BME280_pressure;Samples;Min_cycle;Max_cycle;Signal;HPM_P1;HPM_P2
2022/01/04 00:01:13;;;;;;;3.10;1.67;;;8.60;99.90;;;;;;5074246;28;20036;-63
2022/01/04 00:03:41;;;;;;;2.88;1.35;;;8.60;99.90;;;;;;5073991;28;20591;-63
2022/01/04 00:06:09;;;;;;;3.05;1.60;;;8.70;99.90;;;;;;5074119;28;20021;-62
2022/01/04 00:08:35;;;;;;;3.17;1.52;;;8.60;99.90;;;;;;5074144;28;20503;-62
2022/01/04 00:11:16;;;;;;;1.95;1.15;;;8.60;99.90;;;;;;5072916;28;20024;-62
2022/01/04 00:13:42;;;;;;;3.53;1.60;;;8.60;99.90;;;;;;5074256;28;20024;-63
2022/01/04 00:16:11;;;;;;;3.20;1.33;;;8.50;99.90;;;;;;5073981;28;20024;-63
2022/01/04 00:18:37;;;;;;;2.35;1.50;;;8.50;99.90;;;;;;5074093;28;20086;-62
2022/01/04 00:21:04;;;;;;;1.30;1.00;;;8.50;99.90;;;;;;5074103;28;20060;-62
2022/01/04 00:23:30;;;;;;;1.88;1.17;;;8.50;99.90;;;;;;5073888;28;20082;-63
2022/01/04 00:25:56;;;;;;;2.95;1.10;;;8.40;99.90;;;;;;5074147;28;20362;-63
2022/01/04 00:28:24;;;;;;;2.17;1.10;;;8.50;99.90;;;;;;5075640;28;20021;-62
2022/01/04 00:30:49;;;;;;;2.20;1.00;;;8.40;99.90;;;;;;5073719;28;20032;-63
2022/01/04 00:33:18;;;;;;;0.98;0.90;;;8.40;99.90;;;;;;5072726;28;20036;-63
2022/01/04 00:35:45;;;;;;;4.05;1.30;;;8.40;99.90;;;;;;5073686;28;20107;-62
2022/01/04 00:38:11;;;;;;;2.22;1.10;;;8.30;99.90;;;;;;5073916;28;20025;-62
2022/01/04 00:40:36;;;;;;;2.45;0.90;;;8.40;99.90;;;;;;5073552;28;20107;-62
2022/01/04 00:43:04;;;;;;;2.08;0.88;;;8.40;99.90;;;;;;5073579;28;20500;-62
2022/01/04 00:45:36;;;;;;;0.80;0.80;;;8.40;99.90;;;;;;5066802;28;20032;-63
2022/01/04 00:50:31;;;;;;;0.68;0.63;;;8.40;99.90;;;;;;5073484;28;20039;-62
2022/01/04 00:53:00;;;;;;;0.75;0.75;;;8.30;99.90;;;;;;5073387;28;20037;-62
2022/01/04 00:55:29;;;;;;;2.88;1.10;;;8.40;99.90;;;;;;5072991;28;20096;-63
2022/01/04 00:57:55;;;;;;;3.08;0.93;;;8.40;99.90;;;;;;5069196;28;20387;-63
2022/01/04 01:00:24;;;;;;;4.18;0.90;;;8.40;99.90;;;;;;5072938;28;20021;-63
2022/01/04 01:02:52;;;;;;;2.20;1.35;;;8.40;99.90;;;;;;5072877;28;20036;-63
2022/01/04 01:05:19;;;;;;;1.33;0.90;;;8.40;99.90;;;;;;5071834;28;20555;-62
2022/01/04 01:07:48;;;;;;;1.52;1.25;;;8.30;99.90;;;;;;5073221;28;20552;-63
2022/01/04 01:13:15;;;;;;;1.95;0.85;;;8.30;99.90;;;;;;5060017;28;20037;-62
2022/01/04 01:15:44;;;;;;;1.60;1.00;;;8.30;99.90;;;;;;5066463;28;20361;-63
2022/01/04 01:18:10;;;;;;;2.80;0.88;;;8.30;99.90;;;;;;5072991;28;20036;-65
2022/01/04 01:20:38;;;;;;;1.15;0.82;;;8.40;99.90;;;;;;5066126;28;20040;-63
2022/01/04 01:23:05;;;;;;;2.58;0.98;;;8.30;99.90;;;;;;5072286;28;20029;-62
2022/01/04 01:25:31;;;;;;;1.23;0.80;;;8.40;99.90;;;;;;5072664;28;20024;-63
2022/01/04 01:27:57;;;;;;;0.70;0.70;;;8.30;99.90;;;;;;5072809;28;20444;-62
2022/01/04 01:30:26;;;;;;;0.85;0.85;;;8.20;99.90;;;;;;5072873;28;20029;-63
2022/01/04 01:32:54;;;;;;;2.22;1.05;;;8.20;99.90;;;;;;5072479;28;20401;-63
2022/01/04 01:35:22;;;;;;;0.85;0.82;;;8.30;99.90;;;;;;5072550;28;20024;-63
2022/01/04 01:37:47;;;;;;;2.53;0.57;;;8.30;99.90;;;;;;5072619;28;20448;-62
2022/01/04 01:40:13;;;;;;;0.88;0.60;;;8.30;99.90;;;;;;5065734;28;20055;-63
2022/01/04 01:42:41;;;;;;;1.02;0.90;;;8.30;99.90;;;;;;5072808;28;20024;-63
2022/01/04 01:45:12;;;;;;;1.17;0.70;;;8.20;99.90;;;;;;5072489;28;20408;-63
2022/01/04 01:47:41;;;;;;;1.15;0.60;;;8.30;99.90;;;;;;5072701;28;20023;-62
2022/01/04 01:50:11;;;;;;;0.82;0.63;;;8.30;99.90;;;;;;5072521;28;20025;-63
2022/01/04 01:52:40;;;;;;;1.35;0.70;;;8.30;99.90;;;;;;5072256;28;20395;-63
2022/01/04 01:55:10;;;;;;;2.05;1.00;;;8.30;99.90;;;;;;5072377;28;20063;-62
2022/01/04 01:57:38;;;;;;;2.05;0.80;;;8.30;99.90;;;;;;5075382;28;20495;-63
2022/01/04 02:00:07;;;;;;;1.23;0.80;;;8.20;99.90;;;;;;5072178;28;20028;-63
2022/01/04 02:02:33;;;;;;;1.00;0.88;;;8.20;99.90;;;;;;5072215;28;20033;-62
2022/01/04 02:05:01;;;;;;;1.33;0.80;;;8.20;99.90;;;;;;5072332;28;20083;-63
2022/01/04 02:07:27;;;;;;;3.25;1.15;;;8.20;99.90;;;;;;5072412;28;20404;-62
2022/01/04 02:10:05;;;;;;;1.67;1.48;;;8.20;99.90;;;;;;5072232;28;20029;-63
2022/01/04 02:12:35;;;;;;;1.90;0.90;;;8.20;99.90;;;;;;5072191;28;20016;-62
2022/01/04 02:15:02;;;;;;;3.67;1.08;;;8.10;99.90;;;;;;5072407;28;20025;-63
2022/01/04 02:17:28;;;;;;;1.13;0.65;;;8.20;99.90;;;;;;5072351;28;20037;-62
2022/01/04 02:19:55;;;;;;;1.10;0.60;;;8.20;99.90;;;;;;5072107;28;20054;-62
2022/01/04 02:22:21;;;;;;;2.50;0.75;;;8.20;99.90;;;;;;5070925;28;20028;-63
2022/01/04 02:24:47;;;;;;;0.82;0.70;;;8.20;99.90;;;;;;5070790;28;20025;-62
2022/01/04 02:27:16;;;;;;;0.65;0.65;;;8.20;99.90;;;;;;5073742;28;20025;-63
2022/01/04 02:29:45;;;;;;;1.17;0.80;;;8.10;99.90;;;;;;5074658;28;20051;-62
2022/01/04 02:32:14;;;;;;;2.13;0.88;;;8.20;99.90;;;;;;5072184;28;20111;-63
2022/01/04 02:34:40;;;;;;;2.92;1.10;;;8.10;99.90;;;;;;5068807;28;20037;-62
2022/01/04 02:37:11;;;;;;;2.15;0.98;;;8.10;99.90;;;;;;5072160;28;20120;-63
2022/01/04 02:39:40;;;;;;;3.50;1.60;;;8.10;99.90;;;;;;5072169;28;20040;-63
2022/01/04 02:42:06;;;;;;;2.38;1.40;;;8.10;99.90;;;;;;5071903;28;20384;-63
2022/01/04 02:44:32;;;;;;;3.90;1.00;;;8.20;99.90;;;;;;5070833;28;20387;-62
2022/01/04 02:47:00;;;;;;;1.38;1.15;;;8.10;99.90;;;;;;5072168;28;20391;-64
2022/01/04 02:49:26;;;;;;;1.55;0.75;;;8.00;99.90;;;;;;5072012;28;20086;-62
2022/01/04 02:51:52;;;;;;;2.25;0.82;;;8.00;99.90;;;;;;5071872;28;20028;-63
2022/01/04 02:54:18;;;;;;;1.50;0.98;;;8.00;99.90;;;;;;5070846;28;20131;-63
2022/01/04 02:56:43;;;;;;;3.33;0.90;;;8.00;99.90;;;;;;5065166;28;20103;-64
2022/01/04 02:59:11;;;;;;;2.22;0.90;;;8.00;99.90;;;;;;5072989;28;20046;-63
2022/01/04 03:01:39;;;;;;;1.48;0.90;;;8.00;99.90;;;;;;5071850;28;20037;-62
2022/01/04 03:04:07;;;;;;;2.40;0.70;;;8.10;99.90;;;;;;5071553;28;20024;-63
2022/01/04 03:06:34;;;;;;;2.63;1.17;;;8.10;99.90;;;;;;5070714;28;20090;-62
2022/01/04 03:08:59;;;;;;;1.55;1.15;;;8.00;99.90;;;;;;5071914;28;20104;-62
2022/01/04 03:11:25;;;;;;;1.20;1.10;;;8.00;99.90;;;;;;5072340;28;20179;-62
2022/01/04 03:13:51;;;;;;;1.90;1.10;;;8.00;99.90;;;;;;5075368;28;20032;-63
2022/01/04 03:16:19;;;;;;;1.48;1.10;;;7.90;99.90;;;;;;5075176;28;20025;-63
2022/01/04 03:19:03;;;;;;;1.52;0.82;;;8.00;99.90;;;;;;5068680;28;20028;-62
2022/01/04 03:21:30;;;;;;;1.20;1.10;;;8.10;99.90;;;;;;5075450;28;20027;-64
2022/01/04 03:23:58;;;;;;;2.85;1.33;;;8.00;99.90;;;;;;5074228;28;20016;-62
2022/01/04 03:26:25;;;;;;;2.33;1.10;;;8.10;99.90;;;;;;5075308;28;20035;-63
2022/01/04 03:28:50;;;;;;;2.22;0.95;;;8.20;99.90;;;;;;5078735;28;20077;-62
2022/01/04 03:31:18;;;;;;;1.20;1.08;;;8.10;99.90;;;;;;5075102;28;20048;-63
2022/01/04 03:33:44;;;;;;;4.22;2.33;;;8.10;99.90;;;;;;5073889;28;20032;-63
2022/01/04 03:36:10;;;;;;;2.55;1.20;;;8.10;99.90;;;;;;5074952;28;20032;-62
2022/01/04 03:38:38;;;;;;;2.85;1.40;;;8.10;99.90;;;;;;5074887;28;20032;-62
2022/01/04 03:41:08;;;;;;;2.47;1.27;;;8.10;99.90;;;;;;5073756;28;20027;-63
2022/01/04 03:43:33;;;;;;;2.15;1.15;;;8.10;99.90;;;;;;5075072;28;20035;-62
2022/01/04 03:46:01;;;;;;;1.20;1.00;;;8.20;99.90;;;;;;5074753;28;20032;-62
2022/01/04 03:48:29;;;;;;;1.38;1.05;;;8.10;99.90;;;;;;5074724;28;20033;-62
2022/01/04 03:50:54;;;;;;;1.20;0.90;;;8.10;99.90;;;;;;5074940;28;20108;-62
2022/01/04 03:53:20;;;;;;;2.85;1.35;;;8.10;99.90;;;;;;5074903;28;20174;-62
2022/01/04 03:55:46;;;;;;;3.35;1.50;;;8.00;99.90;;;;;;5074666;28;20055;-63
2022/01/04 03:58:14;;;;;;;1.45;1.20;;;8.00;99.90;;;;;;5080913;28;20450;-63
2022/01/04 04:00:39;;;;;;;1.45;1.33;;;7.90;99.90;;;;;;5074440;28;20037;-62
2022/01/04 04:03:05;;;;;;;1.60;1.10;;;8.00;99.90;;;;;;5074607;28;20046;-64
2022/01/04 04:05:33;;;;;;;1.77;1.30;;;8.00;99.90;;;;;;5074587;28;20028;-63
2022/01/04 04:07:59;;;;;;;1.77;1.20;;;8.00;99.90;;;;;;5074523;28;20021;-62
2022/01/04 04:10:24;;;;;;;3.33;1.30;;;8.00;99.90;;;;;;5074643;28;20381;-62
2022/01/04 04:12:50;;;;;;;3.42;1.70;;;8.00;99.90;;;;;;5074325;28;20013;-63
2022/01/04 04:15:16;;;;;;;3.38;1.55;;;8.00;99.90;;;;;;5074862;28;20029;-63
2022/01/04 04:17:44;;;;;;;2.55;1.45;;;8.00;99.90;;;;;;5073999;28;20020;-61
2022/01/04 04:20:12;;;;;;;1.65;1.40;;;8.00;99.90;;;;;;5073824;28;20021;-63
2022/01/04 04:22:41;;;;;;;2.72;1.40;;;8.00;99.90;;;;;;5074130;28;20029;-63
2022/01/04 04:25:07;;;;;;;2.03;1.17;;;8.00;99.90;;;;;;5073889;28;20107;-63
2022/01/04 04:27:33;;;;;;;1.70;1.35;;;8.00;99.90;;;;;;5076004;28;20028;-62
2022/01/04 04:29:59;;;;;;;1.27;0.88;;;8.00;99.90;;;;;;5073836;28;20422;-62
2022/01/04 04:32:25;;;;;;;2.20;1.20;;;8.00;99.90;;;;;;5073996;28;20501;-63
2022/01/04 04:34:53;;;;;;;1.90;0.90;;;7.90;99.90;;;;;;5073935;28;20315;-63
2022/01/04 04:37:18;;;;;;;3.95;1.63;;;7.90;99.90;;;;;;5073709;28;20032;-62
2022/01/04 04:39:46;;;;;;;2.95;1.63;;;7.90;99.90;;;;;;5073601;28;20628;-63
2022/01/04 04:42:12;;;;;;;1.92;1.05;;;8.00;99.90;;;;;;5073682;28;20051;-63
2022/01/04 04:44:38;;;;;;;2.22;0.93;;;7.80;99.90;;;;;;5066836;28;20391;-63
2022/01/04 04:47:04;;;;;;;1.83;1.20;;;7.90;99.90;;;;;;5073730;28;20032;-62
2022/01/04 04:49:29;;;;;;;1.80;1.20;;;7.90;99.90;;;;;;5073473;28;20024;-62
2022/01/04 04:51:59;;;;;;;4.68;1.60;;;7.90;99.90;;;;;;5072436;28;20024;-63
2022/01/04 04:54:25;;;;;;;1.63;1.33;;;8.00;99.90;;;;;;5073735;28;20096;-62
2022/01/04 04:56:53;;;;;;;3.30;1.10;;;8.00;99.90;;;;;;5073312;28;20442;-63
2022/01/04 04:59:21;;;;;;;1.10;0.85;;;8.00;99.90;;;;;;5076300;28;20059;-63
2022/01/04 05:01:49;;;;;;;2.65;1.08;;;8.00;99.90;;;;;;5067638;28;20438;-62
2022/01/04 05:04:18;;;;;;;2.17;1.20;;;7.90;99.90;;;;;;5077915;28;20048;-63
2022/01/04 05:06:46;;;;;;;2.95;1.20;;;7.90;99.90;;;;;;5073393;28;20040;-63
2022/01/04 05:09:12;;;;;;;1.95;1.45;;;7.90;99.90;;;;;;5072960;28;20402;-63
2022/01/04 05:11:38;;;;;;;1.77;1.20;;;8.00;99.90;;;;;;5073237;28;20110;-63
2022/01/04 05:14:03;;;;;;;1.70;1.50;;;7.90;99.90;;;;;;5072913;28;20029;-62
2022/01/04 05:16:29;;;;;;;1.80;1.45;;;7.80;99.90;;;;;;5072085;28;20025;-62
2022/01/04 05:18:55;;;;;;;5.38;1.88;;;7.90;99.90;;;;;;5073049;28;20017;-62
2022/01/04 05:21:20;;;;;;;3.53;2.00;;;7.90;99.90;;;;;;5072966;28;20012;-62
2022/01/04 05:23:52;;;;;;;2.78;2.15;;;7.90;99.90;;;;;;5073015;28;20051;-62
2022/01/04 05:26:18;;;;;;;2.08;1.65;;;7.90;99.90;;;;;;5073106;28;20310;-63
2022/01/04 05:28:46;;;;;;;2.95;2.22;;;7.90;99.90;;;;;;5072970;28;20066;-62
2022/01/04 05:31:12;;;;;;;4.57;2.35;;;7.90;99.90;;;;;;5072894;28;20044;-63
2022/01/04 05:33:38;;;;;;;2.88;2.10;;;7.90;99.90;;;;;;5072778;28;20406;-63
2022/01/04 05:36:07;;;;;;;3.00;2.70;;;7.90;99.90;;;;;;5072447;28;20033;-61
2022/01/04 05:38:35;;;;;;;3.50;2.60;;;7.80;99.90;;;;;;5072642;28;20024;-61
2022/01/04 05:41:01;;;;;;;5.15;2.40;;;7.80;99.90;;;;;;5072585;28;20039;-59
2022/01/04 05:43:29;;;;;;;4.53;2.80;;;7.90;99.90;;;;;;5072478;28;20024;-63
2022/01/04 05:45:57;;;;;;;4.75;3.00;;;7.90;99.90;;;;;;5072160;28;20037;-60
2022/01/04 05:48:23;;;;;;;8.90;4.65;;;7.90;99.90;;;;;;5065643;28;20365;-62
2022/01/04 05:50:49;;;;;;;4.90;3.08;;;7.90;99.90;;;;;;5072629;28;20020;-63
2022/01/04 05:53:14;;;;;;;6.18;3.30;;;7.90;99.90;;;;;;5070879;28;20024;-63
2022/01/04 05:55:40;;;;;;;4.72;3.22;;;7.90;99.90;;;;;;5072485;28;20050;-61
2022/01/04 05:58:06;;;;;;;4.25;3.20;;;7.80;99.90;;;;;;5074381;28;20036;-60
2022/01/04 06:00:31;;;;;;;5.07;4.20;;;7.80;99.90;;;;;;5071287;28;20028;-63
2022/01/04 06:03:00;;;;;;;5.25;3.30;;;7.80;99.90;;;;;;5072423;28;20024;-62
2022/01/04 06:05:30;;;;;;;6.45;3.47;;;7.80;99.90;;;;;;5072101;28;20051;-62
2022/01/04 06:07:58;;;;;;;5.70;3.30;;;7.70;99.90;;;;;;5066089;28;20029;-63
2022/01/04 06:10:24;;;;;;;5.25;3.33;;;7.80;99.90;;;;;;5072296;28;20254;-63
2022/01/04 06:15:18;;;;;;;5.80;3.35;;;7.80;99.90;;;;;;5072764;28;20024;-60
2022/01/04 06:17:49;;;;;;;4.47;3.08;;;7.80;99.90;;;;;;5066086;28;20032;-61
2022/01/04 06:20:17;;;;;;;5.30;3.15;;;7.80;99.90;;;;;;5066361;28;20036;-63
2022/01/04 06:22:43;;;;;;;5.78;2.63;;;7.80;99.90;;;;;;5072410;28;20040;-62
2022/01/04 06:25:13;;;;;;;4.00;2.25;;;7.80;99.90;;;;;;5064351;28;20321;-63
2022/01/04 06:27:46;;;;;;;4.57;2.83;;;7.80;99.90;;;;;;5077378;28;20020;-62
2022/01/04 06:30:17;;;;;;;5.30;3.55;;;7.80;99.90;;;;;;5071304;28;20024;-62
2022/01/04 06:32:46;;;;;;;5.53;3.08;;;7.90;99.90;;;;;;5072075;28;20032;-62
2022/01/04 06:35:13;;;;;;;5.55;3.60;;;7.90;99.90;;;;;;5071020;28;20031;-62
2022/01/04 06:37:41;;;;;;;5.28;3.67;;;7.90;99.90;;;;;;5072176;28;20112;-64
2022/01/04 06:40:10;;;;;;;6.57;3.78;;;7.80;99.90;;;;;;5071885;28;20335;-63
2022/01/04 06:42:36;;;;;;;5.30;3.63;;;7.90;99.90;;;;;;5071947;28;20067;-62
2022/01/04 06:45:02;;;;;;;5.53;3.63;;;7.90;99.90;;;;;;5071796;28;20083;-62
2022/01/04 06:47:30;;;;;;;7.80;5.10;;;7.80;99.90;;;;;;5074235;28;20024;-62
2022/01/04 06:49:55;;;;;;;5.43;3.42;;;7.80;99.90;;;;;;5075618;28;20052;-63
2022/01/04 06:52:21;;;;;;;6.65;3.20;;;7.80;99.90;;;;;;5074766;28;20056;-63
2022/01/04 06:54:47;;;;;;;10.10;3.88;;;7.80;99.90;;;;;;5075788;28;20020;-63
2022/01/04 06:57:14;;;;;;;4.28;3.13;;;7.80;99.90;;;;;;5075709;28;20378;-63
2022/01/04 06:59:40;;;;;;;3.92;2.63;;;7.80;99.90;;;;;;5075723;28;20028;-62
2022/01/04 07:02:07;;;;;;;6.63;2.95;;;7.80;99.90;;;;;;5075658;28;20082;-62
2022/01/04 07:04:35;;;;;;;3.63;2.55;;;7.80;99.90;;;;;;5068559;28;20029;-63
2022/01/04 07:07:03;;;;;;;4.75;2.60;;;7.80;99.90;;;;;;5075616;28;20024;-62
2022/01/04 07:09:34;;;;;;;2.50;2.30;;;7.80;99.90;;;;;;5075432;28;20029;-63
2022/01/04 07:12:02;;;;;;;5.97;2.60;;;7.80;99.90;;;;;;5075412;28;20048;-63
2022/01/04 07:14:30;;;;;;;3.13;2.35;;;7.80;99.90;;;;;;5075291;28;20103;-63
2022/01/04 07:16:55;;;;;;;4.47;1.75;;;7.80;99.90;;;;;;5075243;28;20025;-63
2022/01/04 07:19:24;;;;;;;4.05;1.95;;;7.80;99.90;;;;;;5074338;28;20089;-63
2022/01/04 07:21:50;;;;;;;3.33;2.10;;;7.70;99.90;;;;;;5075428;28;20347;-63
2022/01/04 07:24:15;;;;;;;3.50;2.03;;;7.80;99.90;;;;;;5075049;28;20032;-63
2022/01/04 07:26:41;;;;;;;2.88;2.03;;;7.70;99.90;;;;;;5075065;28;20024;-62
2022/01/04 07:29:09;;;;;;;3.50;2.03;;;7.80;99.90;;;;;;5078442;28;20051;-63
2022/01/04 07:31:37;;;;;;;3.58;2.45;;;7.80;99.90;;;;;;5074164;28;20043;-62
2022/01/04 07:34:05;;;;;;;4.38;3.17;;;7.70;99.90;;;;;;5074027;28;20096;-62
2022/01/04 07:36:31;;;;;;;3.72;2.65;;;7.80;99.90;;;;;;5069816;28;20096;-61
2022/01/04 07:38:57;;;;;;;5.80;2.80;;;7.80;99.90;;;;;;5073932;28;20445;-62
2022/01/04 07:41:26;;;;;;;6.35;3.70;;;7.90;99.90;;;;;;5074916;28;20027;-63
2022/01/04 07:43:53;;;;;;;4.75;2.55;;;7.80;99.90;;;;;;5072704;28;20017;-62
2022/01/04 07:46:19;;;;;;;4.05;2.72;;;7.80;99.90;;;;;;5073547;28;20025;-62
2022/01/04 07:48:45;;;;;;;5.00;2.67;;;7.80;99.90;;;;;;5074756;28;20146;-63
2022/01/04 07:51:13;;;;;;;3.50;2.75;;;7.80;99.90;;;;;;5074766;28;20480;-62
2022/01/04 07:53:39;;;;;;;4.03;2.75;;;7.80;99.90;;;;;;5074755;28;20048;-62
2022/01/04 07:56:07;;;;;;;7.35;3.38;;;7.80;99.90;;;;;;5074322;28;20116;-63
2022/01/04 07:58:35;;;;;;;7.75;3.83;;;7.90;99.90;;;;;;5074111;28;20362;-63
2022/01/04 08:01:03;;;;;;;6.82;3.85;;;7.90;99.90;;;;;;5074304;28;20028;-63
2022/01/04 08:03:30;;;;;;;5.00;3.13;;;7.90;99.90;;;;;;5074466;28;20345;-62
2022/01/04 08:05:56;;;;;;;7.03;3.58;;;7.80;99.90;;;;;;5074268;28;20024;-62
2022/01/04 08:08:22;;;;;;;6.10;3.80;;;7.90;99.90;;;;;;5074359;28;20025;-62
2022/01/04 08:10:50;;;;;;;6.25;3.95;;;7.90;99.90;;;;;;5074311;28;20074;-63
2022/01/04 08:13:15;;;;;;;9.07;4.10;;;7.90;99.90;;;;;;5074248;28;20474;-63
2022/01/04 08:15:41;;;;;;;9.73;4.05;;;7.90;99.90;;;;;;5074211;28;20032;-63
2022/01/04 08:18:06;;;;;;;7.43;4.55;;;7.90;99.90;;;;;;5074513;28;20052;-62
2022/01/04 08:20:35;;;;;;;7.10;3.75;;;7.80;99.90;;;;;;5073913;28;20029;-62
2022/01/04 08:23:03;;;;;;;8.95;3.85;;;7.90;99.90;;;;;;5074094;28;20385;-62
2022/01/04 08:25:30;;;;;;;7.30;4.70;;;7.90;99.90;;;;;;5073857;28;20533;-63
2022/01/04 08:27:58;;;;;;;6.82;4.25;;;7.90;99.90;;;;;;5075518;28;20425;-62
2022/01/04 08:30:26;;;;;;;8.07;4.82;;;7.90;99.90;;;;;;5073776;28;20099;-63
2022/01/04 08:32:53;;;;;;;9.95;5.03;;;7.90;99.90;;;;;;5071947;28;20099;-63
2022/01/04 08:35:19;;;;;;;9.05;5.63;;;7.90;99.90;;;;;;5067413;28;20111;-66
2022/01/04 08:37:47;;;;;;;7.05;4.95;;;7.90;99.90;;;;;;5070003;28;20465;-63
2022/01/04 08:40:12;;;;;;;8.48;4.60;;;7.80;99.90;;;;;;5073018;28;20040;-63
2022/01/04 08:42:40;;;;;;;9.82;5.38;;;7.90;99.90;;;;;;5073499;28;20028;-64
2022/01/04 08:45:09;;;;;;;11.93;5.60;;;7.90;99.90;;;;;;5075001;28;20441;-64
2022/01/04 08:47:35;;;;;;;7.20;5.07;;;7.90;99.90;;;;;;5073422;28;20029;-63
2022/01/04 08:50:02;;;;;;;7.20;4.80;;;7.90;99.90;;;;;;5072334;28;20035;-63
2022/01/04 08:52:30;;;;;;;11.60;5.80;;;7.90;99.90;;;;;;5073340;28;20028;-62
2022/01/04 08:54:55;;;;;;;9.65;5.70;;;7.90;99.90;;;;;;5073281;28;20020;-66
2022/01/04 08:57:22;;;;;;;9.85;5.35;;;7.90;99.90;;;;;;5076905;28;20357;-65
2022/01/04 08:59:48;;;;;;;9.85;5.93;;;7.90;99.90;;;;;;5072782;28;20033;-66
2022/01/04 09:02:14;;;;;;;8.20;5.25;;;8.00;99.90;;;;;;5073164;28;20032;-65
2022/01/04 09:04:42;;;;;;;7.75;5.30;;;8.00;99.90;;;;;;5072888;28;20350;-66
2022/01/04 09:07:10;;;;;;;10.98;6.20;;;7.90;99.90;;;;;;5073043;28;20024;-65
2022/01/04 09:09:36;;;;;;;9.30;5.63;;;8.00;99.90;;;;;;5072272;28;20020;-65
2022/01/04 09:12:01;;;;;;;8.60;6.10;;;7.90;99.90;;;;;;5076690;28;20043;-67
2022/01/04 09:14:42;;;;;;;8.73;5.68;;;7.90;99.90;;;;;;5075403;28;20041;-68
2022/01/04 09:19:55;;;;;;;9.73;6.18;;;7.90;99.90;;;;;;5070491;28;20181;-68
2022/01/04 09:22:21;;;;;;;11.00;7.20;;;7.90;99.90;;;;;;5072301;28;20117;-69
2022/01/04 09:24:47;;;;;;;8.95;6.15;;;7.90;99.90;;;;;;5072574;28;20024;-65
2022/01/04 09:27:15;;;;;;;10.13;5.78;;;8.00;99.90;;;;;;5072799;28;20590;-64
2022/01/04 09:29:41;;;;;;;9.65;5.43;;;8.00;99.90;;;;;;5072591;28;20118;-64
2022/01/04 09:32:07;;;;;;;8.80;4.80;;;8.00;99.90;;;;;;5070430;28;20112;-65
2022/01/04 09:34:35;;;;;;;7.97;5.03;;;7.90;99.90;;;;;;5071680;28;20066;-68
2022/01/04 09:37:00;;;;;;;9.57;4.93;;;8.00;99.90;;;;;;5071491;28;20051;-68
2022/01/04 09:39:26;;;;;;;7.00;4.85;;;8.00;99.90;;;;;;5072146;28;20048;-66
2022/01/04 09:41:55;;;;;;;6.80;4.30;;;8.10;99.90;;;;;;5072109;28;20532;-71
2022/01/04 09:44:25;;;;;;;11.05;4.75;;;8.10;99.90;;;;;;5072022;28;20039;-66
2022/01/04 09:46:53;;;;;;;8.32;5.45;;;8.10;99.90;;;;;;5069807;28;20020;-65
2022/01/04 09:49:22;;;;;;;9.10;5.97;;;8.10;99.90;;;;;;5071079;28;20017;-64
2022/01/04 09:51:49;;;;;;;10.48;4.93;;;8.20;99.90;;;;;;5072027;28;20058;-67
2022/01/04 09:54:23;;;;;;;9.27;5.32;;;8.10;99.90;;;;;;5072234;28;20020;-67
2022/01/04 09:56:50;;;;;;;8.52;5.40;;;8.20;99.90;;;;;;5072475;28;20461;-64
2022/01/04 09:59:16;;;;;;;7.60;5.38;;;8.20;99.90;;;;;;5075178;28;20036;-64
2022/01/04 10:01:50;;;;;;;7.82;4.28;;;8.20;99.90;;;;;;5065199;28;20055;-66
2022/01/04 10:04:17;;;;;;;7.95;4.63;;;8.20;99.90;;;;;;5069062;28;20673;-67
2022/01/04 10:07:07;;;;;;;6.35;4.20;;;8.20;99.90;;;;;;5071791;28;20021;-65
2022/01/04 10:09:44;;;;;;;7.17;4.40;;;8.20;99.90;;;;;;5069470;28;20082;-65
2022/01/04 10:12:12;;;;;;;4.53;3.45;;;8.20;99.90;;;;;;5071747;28;20031;-64
2022/01/04 10:14:51;;;;;;;7.05;4.00;;;8.10;99.90;;;;;;5071782;28;20025;-64
2022/01/04 10:17:23;;;;;;;5.00;3.20;;;8.20;99.90;;;;;;5071879;28;20908;-64
2022/01/04 10:19:54;;;;;;;5.88;3.38;;;8.40;99.90;;;;;;5071575;28;20471;-66
2022/01/04 10:22:20;;;;;;;4.30;3.15;;;8.20;99.90;;;;;;5073170;28;20404;-64
2022/01/04 10:25:01;;;;;;;6.57;4.07;;;8.20;99.90;;;;;;5076024;28;20028;-65
2022/01/04 10:27:41;;;;;;;7.55;3.97;;;8.20;99.90;;;;;;5070307;28;20404;-67
2022/01/04 10:30:20;;;;;;;8.95;5.22;;;8.10;99.90;;;;;;5070353;28;20055;-67
2022/01/04 10:32:57;;;;;;;11.98;5.40;;;8.20;99.90;;;;;;5076362;28;20037;-66
2022/01/04 10:35:45;;;;;;;8.70;4.68;;;8.10;99.90;;;;;;5076345;28;20097;-66
2022/01/04 10:38:33;;;;;;;9.60;4.15;;;8.20;99.90;;;;;;5075774;28;20116;-66
2022/01/04 10:41:04;;;;;;;12.63;5.50;;;8.10;99.90;;;;;;5074177;28;20028;-66
2022/01/04 10:43:31;;;;;;;8.40;4.32;;;8.10;99.90;;;;;;5071828;28;20119;-66
2022/01/04 10:45:58;;;;;;;9.50;4.70;;;8.20;99.90;;;;;;5074361;28;20350;-67
2022/01/04 10:48:30;;;;;;;11.05;6.45;;;8.10;99.90;;;;;;5070899;28;20079;-67
2022/01/04 10:50:58;;;;;;;11.40;5.05;;;8.20;99.90;;;;;;5074449;28;20059;-66
2022/01/04 10:53:39;;;;;;;7.00;4.25;;;8.20;99.90;;;;;;5074464;28;20067;-66
2022/01/04 10:56:09;;;;;;;6.50;3.58;;;8.10;99.90;;;;;;5074834;28;20453;-67
2022/01/04 10:58:37;;;;;;;6.38;3.80;;;8.10;99.90;;;;;;5074130;28;20500;-66
2022/01/04 11:01:11;;;;;;;7.03;3.63;;;8.00;99.90;;;;;;5075602;28;20058;-67
2022/01/04 11:03:43;;;;;;;6.68;3.92;;;8.00;99.90;;;;;;5075614;28;20128;-67
2022/01/04 11:06:20;;;;;;;4.32;3.00;;;8.00;99.90;;;;;;5073486;28;20098;-67
2022/01/04 11:08:51;;;;;;;5.72;2.90;;;8.00;99.90;;;;;;5070807;28;20082;-67
2022/01/04 11:11:17;;;;;;;5.50;2.85;;;8.10;99.90;;;;;;5075743;28;20054;-67
2022/01/04 11:13:43;;;;;;;6.00;3.10;;;8.00;99.90;;;;;;5074472;28;20024;-67
2022/01/04 11:16:09;;;;;;;4.45;3.00;;;8.10;99.90;;;;;;5074249;28;20700;-67
2022/01/04 11:18:42;;;;;;;2.83;2.58;;;8.10;99.90;;;;;;5075315;28;20028;-67
2022/01/04 11:21:18;;;;;;;3.90;2.63;;;8.10;99.90;;;;;;5075281;28;20449;-66
2022/01/04 11:23:46;;;;;;;3.97;2.70;;;8.00;99.90;;;;;;5075599;28;20040;-67
2022/01/04 11:26:17;;;;;;;4.10;2.33;;;8.00;99.90;;;;;;5075179;28;20032;-67
2022/01/04 11:28:45;;;;;;;5.35;2.70;;;8.00;99.90;;;;;;5079471;28;20108;-68
2022/01/04 11:31:41;;;;;;;5.25;2.40;;;8.00;99.90;;;;;;5075177;28;20045;-70
2022/01/04 11:34:07;;;;;;;3.15;2.70;;;8.00;99.90;;;;;;5069143;28;20024;-68
2022/01/04 11:36:46;;;;;;;4.35;2.53;;;7.90;99.90;;;;;;5075415;28;20028;-66
2022/01/04 11:39:29;;;;;;;4.60;3.00;;;7.90;99.90;;;;;;5073998;28;20416;-70
2022/01/04 11:41:56;;;;;;;5.30;2.50;;;7.90;99.90;;;;;;5073683;28;20050;-73
2022/01/04 11:44:24;;;;;;;5.32;2.75;;;8.00;99.90;;;;;;5072584;28;20028;-70
2022/01/04 11:47:07;;;;;;;4.82;2.35;;;7.90;99.90;;;;;;5073835;28;20438;-69
2022/01/04 11:49:40;;;;;;;4.43;3.13;;;7.90;99.90;;;;;;5073562;28;20448;-68
2022/01/04 11:52:29;;;;;;;4.47;2.60;;;7.80;99.90;;;;;;5068943;28;20072;-70
2022/01/04 11:55:21;;;;;;;8.10;2.78;;;8.00;99.90;;;;;;5070998;28;20025;-68
2022/01/04 11:57:51;;;;;;;6.43;2.97;;;8.00;99.90;;;;;;5068560;28;20376;-65
2022/01/04 12:00:27;;;;;;;5.03;2.67;;;8.10;99.90;;;;;;5074755;28;20024;-65
2022/01/04 12:03:20;;;;;;;4.53;1.95;;;8.10;99.90;;;;;;5074851;28;20021;-67
2022/01/04 12:05:57;;;;;;;2.53;2.25;;;8.10;99.90;;;;;;5074738;28;20116;-66
2022/01/04 12:08:25;;;;;;;2.85;2.22;;;8.10;99.90;;;;;;5074924;28;20020;-71
2022/01/04 12:10:57;;;;;;;4.78;2.50;;;8.00;99.90;;;;;;5074640;28;20020;-71
2022/01/04 12:13:44;;;;;;;4.75;2.40;;;8.10;99.90;;;;;;5074575;28;20082;-71
2022/01/04 12:16:12;;;;;;;3.63;2.10;;;8.20;99.90;;;;;;5074592;28;20032;-67
2022/01/04 12:18:38;;;;;;;2.95;1.98;;;8.10;99.90;;;;;;5074511;28;20025;-62
2022/01/04 12:21:13;;;;;;;4.13;2.33;;;8.10;99.90;;;;;;5074418;28;20377;-63
2022/01/04 12:23:38;;;;;;;2.63;2.20;;;8.20;99.90;;;;;;5074393;28;20483;-63
2022/01/04 12:26:14;;;;;;;2.25;2.05;;;8.10;99.90;;;;;;5072681;28;20028;-63
2022/01/04 12:28:45;;;;;;;2.63;1.88;;;8.10;99.90;;;;;;5076122;28;20086;-63
2022/01/04 12:31:19;;;;;;;3.58;1.85;;;8.20;99.90;;;;;;5073595;28;20028;-63
2022/01/04 12:33:53;;;;;;;3.15;2.10;;;8.10;99.90;;;;;;5073086;28;20020;-63
2022/01/04 12:36:34;;;;;;;3.88;2.17;;;8.20;99.90;;;;;;5074177;28;20032;-64
2022/01/04 12:39:08;;;;;;;2.97;2.50;;;8.20;99.90;;;;;;5073932;28;20386;-64
2022/01/04 12:41:37;;;;;;;4.03;2.28;;;8.10;99.90;;;;;;5074053;28;20485;-63
2022/01/04 12:44:04;;;;;;;3.58;2.17;;;8.10;99.90;;;;;;5072987;28;20033;-63
2022/01/04 12:46:34;;;;;;;3.95;2.92;;;8.10;99.90;;;;;;5073737;28;20469;-63
2022/01/04 12:49:02;;;;;;;6.50;3.10;;;8.20;99.90;;;;;;5070847;28;20398;-63
2022/01/04 12:51:44;;;;;;;6.50;3.47;;;8.20;99.90;;;;;;5069191;28;20025;-63
2022/01/04 12:54:12;;;;;;;4.65;3.10;;;8.30;99.90;;;;;;5074064;28;20039;-63
2022/01/04 12:56:47;;;;;;;5.63;3.78;;;8.20;99.90;;;;;;5073639;28;20025;-64
2022/01/04 12:59:21;;;;;;;7.63;5.18;;;8.30;99.90;;;;;;5079761;28;20043;-63
2022/01/04 13:01:52;;;;;;;5.80;3.35;;;8.20;99.90;;;;;;5066955;28;20017;-63
2022/01/04 13:04:22;;;;;;;5.10;4.05;;;8.20;99.90;;;;;;5067884;28;20028;-63
2022/01/04 13:06:49;;;;;;;9.32;4.68;;;8.20;99.90;;;;;;5073771;28;20033;-65
2022/01/04 13:09:20;;;;;;;7.28;4.75;;;8.20;99.90;;;;;;5066796;28;20111;-64
2022/01/04 13:11:53;;;;;;;13.50;5.05;;;8.30;99.90;;;;;;5073446;28;20013;-64
2022/01/04 13:14:21;;;;;;;6.47;5.10;;;8.30;99.90;;;;;;5072286;28;20035;-64
2022/01/04 13:16:48;;;;;;;9.45;5.43;;;8.30;99.90;;;;;;5073330;28;20086;-64